sensor_id;sensor_type;location;lat;lon;timestamp;pressure;altitude;pressure_sealevel;temperature;humidity
63395;BME280;49531;-34.520;150.798;2023-05-03T00:01:07;100330.31;;;19.61;47.72
63395;BME280;49531;-34.520;150.798;2023-05-03T00:06:49;100316.81;;;19.71;46.49
63395;BME280;49531;-34.520;150.798;2023-05-03T00:09:16;100292.41;;;19.66;46.25
63395;BME280;49531;-34.520;150.798;2023-05-03T00:11:43;100308.16;;;19.74;46.18
63395;BME280;49531;-34.520;150.798;2023-05-03T00:14:11;100291.31;;;19.67;46.30
63395;BME280;49531;-34.520;150.798;2023-05-03T00:16:38;100287.56;;;19.78;46.21
63395;BME280;49531;-34.520;150.798;2023-05-03T00:19:50;100266.72;;;19.79;45.92
63395;BME280;49531;-34.520;150.798;2023-05-03T00:22:03;100277.59;;;19.89;45.78
63395;BME280;49531;-34.520;150.798;2023-05-03T00:24:57;100269.75;;;20.03;45.35
63395;BME280;49531;-34.520;150.798;2023-05-03T00:31:21;100160.47;;;19.77;44.71
63395;BME280;49531;-34.520;150.798;2023-05-03T00:38:16;100166.47;;;20.04;43.91
63395;BME280;49531;-34.520;150.798;2023-05-03T00:41:30;100152.09;;;20.04;43.55
63395;BME280;49531;-34.520;150.798;2023-05-03T00:45:19;100136.63;;;20.04;43.17
63395;BME280;49531;-34.520;150.798;2023-05-03T00:47:15;100231.25;;;20.82;42.23
63395;BME280;49531;-34.520;150.798;2023-05-03T00:50:18;100226.91;;;20.86;42.11
63395;BME280;49531;-34.520;150.798;2023-05-03T00:53:14;100235.06;;;20.81;42.52
63395;BME280;49531;-34.520;150.798;2023-05-03T00:56:24;100185.19;;;20.56;42.68
63395;BME280;49531;-34.520;150.798;2023-05-03T00:58:41;100233.16;;;20.96;42.56
63395;BME280;49531;-34.520;150.798;2023-05-03T01:01:08;100237.75;;;21.01;42.62
63395;BME280;49531;-34.520;150.798;2023-05-03T01:03:37;100233.94;;;21.02;42.61
63395;BME280;49531;-34.520;150.798;2023-05-03T01:09:00;100231.78;;;21.04;42.12
63395;BME280;49531;-34.520;150.798;2023-05-03T01:11:39;100214.13;;;21.07;41.99
63395;BME280;49531;-34.520;150.798;2023-05-03T01:14:21;100216.84;;;21.02;41.56
63395;BME280;49531;-34.520;150.798;2023-05-03T01:16:57;100217.91;;;21.11;41.00
63395;BME280;49531;-34.520;150.798;2023-05-03T01:19:33;100224.69;;;21.08;39.92
63395;BME280;49531;-34.520;150.798;2023-05-03T01:25:05;100194.25;;;21.21;39.14
63395;BME280;49531;-34.520;150.798;2023-05-03T01:27:33;100212.72;;;21.24;39.06
63395;BME280;49531;-34.520;150.798;2023-05-03T01:30:05;100206.19;;;21.20;38.48
63395;BME280;49531;-34.520;150.798;2023-05-03T01:33:00;100211.34;;;21.27;38.27
63395;BME280;49531;-34.520;150.798;2023-05-03T01:35:51;100201.81;;;21.29;37.85
63395;BME280;49531;-34.520;150.798;2023-05-03T01:38:20;100195.88;;;21.27;37.90
63395;BME280;49531;-34.520;150.798;2023-05-03T01:40:52;100199.38;;;21.33;37.62
63395;BME280;49531;-34.520;150.798;2023-05-03T01:43:20;100199.09;;;21.35;37.56
63395;BME280;49531;-34.520;150.798;2023-05-03T01:45:49;100180.63;;;21.32;37.98
63395;BME280;49531;-34.520;150.798;2023-05-03T01:48:18;100179.81;;;21.31;38.10
63395;BME280;49531;-34.520;150.798;2023-05-03T01:50:45;100176.00;;;21.37;37.63
63395;BME280;49531;-34.520;150.798;2023-05-03T01:53:12;100181.16;;;21.39;37.82
63395;BME280;49531;-34.520;150.798;2023-05-03T01:55:39;100212.91;;;21.43;37.75
63395;BME280;49531;-34.520;150.798;2023-05-03T01:58:07;100154.25;;;21.37;37.53
63395;BME280;49531;-34.520;150.798;2023-05-03T02:00:34;100161.03;;;21.45;37.57
63395;BME280;49531;-34.520;150.798;2023-05-03T02:03:01;100166.22;;;21.36;37.36
63395;BME280;49531;-34.520;150.798;2023-05-03T02:05:28;100133.06;;;21.39;37.16
63395;BME280;49531;-34.520;150.798;2023-05-03T02:07:56;100134.69;;;21.40;36.95
63395;BME280;49531;-34.520;150.798;2023-05-03T02:10:23;100147.41;;;21.50;36.84
63395;BME280;49531;-34.520;150.798;2023-05-03T02:12:51;100124.28;;;21.52;36.91
63395;BME280;49531;-34.520;150.798;2023-05-03T02:15:19;100136.78;;;21.53;37.02
63395;BME280;49531;-34.520;150.798;2023-05-03T02:17:46;100103.69;;;21.46;37.02
63395;BME280;49531;-34.520;150.798;2023-05-03T02:20:14;100125.09;;;21.53;37.33
63395;BME280;49531;-34.520;150.798;2023-05-03T02:22:41;100126.44;;;21.55;37.43
63395;BME280;49531;-34.520;150.798;2023-05-03T02:25:09;100103.91;;;21.55;37.43
63395;BME280;49531;-34.520;150.798;2023-05-03T02:27:36;100115.88;;;21.54;37.63
63395;BME280;49531;-34.520;150.798;2023-05-03T02:30:04;100097.38;;;21.56;37.22
63395;BME280;49531;-34.520;150.798;2023-05-03T02:32:31;100097.91;;;21.58;37.21
63395;BME280;49531;-34.520;150.798;2023-05-03T02:34:58;100091.16;;;21.50;37.14
63395;BME280;49531;-34.520;150.798;2023-05-03T02:37:27;100100.66;;;21.53;37.05
63395;BME280;49531;-34.520;150.798;2023-05-03T02:39:54;100094.97;;;21.49;37.29
63395;BME280;49531;-34.520;150.798;2023-05-03T02:42:21;100098.47;;;21.55;36.80
63395;BME280;49531;-34.520;150.798;2023-05-03T02:44:49;100096.22;;;21.62;37.05
63395;BME280;49531;-34.520;150.798;2023-05-03T02:47:16;100071.47;;;21.63;36.97
63395;BME280;49531;-34.520;150.798;2023-05-03T02:49:43;100100.91;;;21.56;37.29
63395;BME280;49531;-34.520;150.798;2023-05-03T02:52:10;100102.19;;;21.64;37.35
63395;BME280;49531;-34.520;150.798;2023-05-03T02:54:38;100082.72;;;21.52;37.63
63395;BME280;49531;-34.520;150.798;2023-05-03T02:57:05;100084.00;;;21.59;37.68
63395;BME280;49531;-34.520;150.798;2023-05-03T02:59:32;100080.00;;;21.52;37.79
63395;BME280;49531;-34.520;150.798;2023-05-03T03:01:59;100099.19;;;21.66;37.70
63395;BME280;49531;-34.520;150.798;2023-05-03T03:04:26;100067.69;;;21.59;37.81
63395;BME280;49531;-34.520;150.798;2023-05-03T03:06:54;100081.53;;;21.63;37.60
63395;BME280;49531;-34.520;150.798;2023-05-03T03:09:22;100075.72;;;21.80;37.54
63395;BME280;49531;-34.520;150.798;2023-05-03T03:11:51;100076.72;;;21.89;37.44
63395;BME280;49531;-34.520;150.798;2023-05-03T03:14:18;100079.97;;;21.91;37.70
63395;BME280;49531;-34.520;150.798;2023-05-03T03:16:46;100058.22;;;21.91;38.03
63395;BME280;49531;-34.520;150.798;2023-05-03T03:19:13;100067.34;;;22.00;37.68
63395;BME280;49531;-34.520;150.798;2023-05-03T03:21:41;100074.38;;;22.11;38.08
63395;BME280;49531;-34.520;150.798;2023-05-03T03:24:08;100068.88;;;22.16;38.17
63395;BME280;49531;-34.520;150.798;2023-05-03T03:26:35;100065.81;;;22.23;38.16
63395;BME280;49531;-34.520;150.798;2023-05-03T03:29:02;100076.59;;;22.33;37.48
63395;BME280;49531;-34.520;150.798;2023-05-03T03:31:29;100088.47;;;22.42;37.05
63395;BME280;49531;-34.520;150.798;2023-05-03T03:33:57;100069.41;;;22.42;37.08
63395;BME280;49531;-34.520;150.798;2023-05-03T03:36:24;100062.81;;;22.48;36.98
63395;BME280;49531;-34.520;150.798;2023-05-03T03:38:53;100080.75;;;22.49;37.12
63395;BME280;49531;-34.520;150.798;2023-05-03T03:41:21;100064.44;;;22.49;35.98
63395;BME280;49531;-34.520;150.798;2023-05-03T03:43:48;100054.13;;;22.46;36.59
63395;BME280;49531;-34.520;150.798;2023-05-03T03:46:16;100048.75;;;22.41;36.54
63395;BME280;49531;-34.520;150.798;2023-05-03T03:48:44;100065.47;;;22.53;36.22
63395;BME280;49531;-34.520;150.798;2023-05-03T03:51:11;100057.59;;;22.52;36.20
63395;BME280;49531;-34.520;150.798;2023-05-03T03:53:38;100069.53;;;22.56;36.62
63395;BME280;49531;-34.520;150.798;2023-05-03T03:56:05;100061.72;;;22.49;37.16
63395;BME280;49531;-34.520;150.798;2023-05-03T03:58:33;100060.09;;;22.48;36.89
63395;BME280;49531;-34.520;150.798;2023-05-03T04:01:01;100053.50;;;22.54;36.29
63395;BME280;49531;-34.520;150.798;2023-05-03T04:03:28;100027.97;;;22.50;36.26
63395;BME280;49531;-34.520;150.798;2023-05-03T04:05:56;100068.50;;;22.52;36.49
63395;BME280;49531;-34.520;150.798;2023-05-03T04:08:23;100049.09;;;22.58;36.45
63395;BME280;49531;-34.520;150.798;2023-05-03T04:10:50;100042.84;;;22.58;35.77
63395;BME280;49531;-34.520;150.798;2023-05-03T04:13:18;100049.63;;;22.60;36.08
63395;BME280;49531;-34.520;150.798;2023-05-03T04:15:45;100022.63;;;22.64;35.77
63395;BME280;49531;-34.520;150.798;2023-05-03T04:18:12;100033.75;;;22.68;35.91
63395;BME280;49531;-34.520;150.798;2023-05-03T04:20:40;99998.47;;;22.57;35.63
63395;BME280;49531;-34.520;150.798;2023-05-03T04:23:07;100017.41;;;22.68;35.92
63395;BME280;49531;-34.520;150.798;2023-05-03T04:25:34;100035.13;;;22.65;35.11
63395;BME280;49531;-34.520;150.798;2023-05-03T04:28:02;100038.16;;;22.63;36.11
63395;BME280;49531;-34.520;150.798;2023-05-03T04:30:29;100031.59;;;22.65;36.08
63395;BME280;49531;-34.520;150.798;2023-05-03T04:32:57;100014.81;;;22.57;35.33
63395;BME280;49531;-34.520;150.798;2023-05-03T04:35:25;100047.19;;;22.83;34.97
63395;BME280;49531;-34.520;150.798;2023-05-03T04:37:52;100044.69;;;22.62;35.53
63395;BME280;49531;-34.520;150.798;2023-05-03T04:40:19;100028.41;;;22.57;35.75
63395;BME280;49531;-34.520;150.798;2023-05-03T04:42:46;100068.03;;;22.69;35.88
63395;BME280;49531;-34.520;150.798;2023-05-03T04:45:14;100097.69;;;22.70;35.79
63395;BME280;49531;-34.520;150.798;2023-05-03T04:47:41;100054.72;;;22.67;35.54
63395;BME280;49531;-34.520;150.798;2023-05-03T04:50:09;100068.09;;;22.63;35.72
63395;BME280;49531;-34.520;150.798;2023-05-03T04:52:37;100068.03;;;22.69;35.65
63395;BME280;49531;-34.520;150.798;2023-05-03T04:55:05;100029.75;;;22.60;35.49
63395;BME280;49531;-34.520;150.798;2023-05-03T04:57:33;100067.34;;;22.82;35.83
63395;BME280;49531;-34.520;150.798;2023-05-03T05:00:00;100081.00;;;22.77;36.09
63395;BME280;49531;-34.520;150.798;2023-05-03T05:02:28;100056.50;;;22.77;36.25
63395;BME280;49531;-34.520;150.798;2023-05-03T05:04:55;100080.78;;;22.73;36.15
63395;BME280;49531;-34.520;150.798;2023-05-03T05:07:22;100093.00;;;22.76;36.09
63395;BME280;49531;-34.520;150.798;2023-05-03T05:09:49;100080.19;;;22.76;35.94
63395;BME280;49531;-34.520;150.798;2023-05-03T05:12:19;100087.84;;;22.74;36.00
63395;BME280;49531;-34.520;150.798;2023-05-03T05:14:46;100067.69;;;22.75;36.27
63395;BME280;49531;-34.520;150.798;2023-05-03T05:17:14;100071.50;;;22.74;36.62
63395;BME280;49531;-34.520;150.798;2023-05-03T05:19:41;100096.78;;;22.80;36.47
63395;BME280;49531;-34.520;150.798;2023-05-03T05:22:08;100095.91;;;22.84;36.06
63395;BME280;49531;-34.520;150.798;2023-05-03T05:24:36;100079.38;;;22.76;36.54
63395;BME280;49531;-34.520;150.798;2023-05-03T05:27:03;100066.06;;;22.74;36.71
63395;BME280;49531;-34.520;150.798;2023-05-03T05:29:31;100081.25;;;22.80;36.65
63395;BME280;49531;-34.520;150.798;2023-05-03T05:31:59;100104.94;;;22.80;36.78
63395;BME280;49531;-34.520;150.798;2023-05-03T05:34:28;100100.00;;;22.82;36.47
63395;BME280;49531;-34.520;150.798;2023-05-03T05:36:55;100109.75;;;22.88;36.73
63395;BME280;49531;-34.520;150.798;2023-05-03T05:39:22;100113.69;;;22.77;36.71
63395;BME280;49531;-34.520;150.798;2023-05-03T05:41:49;100103.84;;;22.81;36.94
63395;BME280;49531;-34.520;150.798;2023-05-03T05:44:16;100096.81;;;22.75;36.93
63395;BME280;49531;-34.520;150.798;2023-05-03T05:46:44;100104.41;;;22.78;36.64
63395;BME280;49531;-34.520;150.798;2023-05-03T05:49:12;100115.53;;;22.81;37.18
63395;BME280;49531;-34.520;150.798;2023-05-03T05:51:39;100123.41;;;22.83;36.92
63395;BME280;49531;-34.520;150.798;2023-05-03T05:54:07;100141.94;;;22.81;37.03
63395;BME280;49531;-34.520;150.798;2023-05-03T05:56:34;100152.84;;;22.81;36.90
63395;BME280;49531;-34.520;150.798;2023-05-03T05:59:02;100140.38;;;22.75;36.91
63395;BME280;49531;-34.520;150.798;2023-05-03T06:01:31;100144.59;;;22.62;37.16
63395;BME280;49531;-34.520;150.798;2023-05-03T06:03:59;100149.47;;;22.65;37.53
63395;BME280;49531;-34.520;150.798;2023-05-03T06:06:26;100128.03;;;22.58;37.45
63395;BME280;49531;-34.520;150.798;2023-05-03T06:08:53;100150.50;;;22.69;37.52
63395;BME280;49531;-34.520;150.798;2023-05-03T06:11:21;100155.19;;;22.63;37.57
63395;BME280;49531;-34.520;150.798;2023-05-03T06:13:48;100187.81;;;22.69;37.59
63395;BME280;49531;-34.520;150.798;2023-05-03T06:16:15;100184.00;;;22.70;37.27
63395;BME280;49531;-34.520;150.798;2023-05-03T06:18:42;100203.34;;;22.68;37.41
63395;BME280;49531;-34.520;150.798;2023-05-03T06:21:10;100239.78;;;22.72;37.68
63395;BME280;49531;-34.520;150.798;2023-05-03T06:23:37;100206.59;;;22.70;37.55
63395;BME280;49531;-34.520;150.798;2023-05-03T06:26:05;100221.63;;;22.62;37.91
63395;BME280;49531;-34.520;150.798;2023-05-03T06:28:34;100229.50;;;22.64;38.15
63395;BME280;49531;-34.520;150.798;2023-05-03T06:31:01;100231.47;;;22.58;38.26
63395;BME280;49531;-34.520;150.798;2023-05-03T06:33:28;100221.72;;;22.52;38.40
63395;BME280;49531;-34.520;150.798;2023-05-03T06:35:56;100227.41;;;22.56;38.31
63395;BME280;49531;-34.520;150.798;2023-05-03T06:38:24;100241.81;;;22.56;38.55
63395;BME280;49531;-34.520;150.798;2023-05-03T06:40:51;100230.44;;;22.49;38.37
63395;BME280;49531;-34.520;150.798;2023-05-03T06:43:18;100234.25;;;22.48;38.35
63395;BME280;49531;-34.520;150.798;2023-05-03T06:45:46;100246.75;;;22.54;38.36
63395;BME280;49531;-34.520;150.798;2023-05-03T06:48:13;100222.06;;;22.41;38.18
63395;BME280;49531;-34.520;150.798;2023-05-03T06:50:40;100229.09;;;22.47;38.57
63395;BME280;49531;-34.520;150.798;2023-05-03T06:53:08;100244.63;;;22.46;38.75
63395;BME280;49531;-34.520;150.798;2023-05-03T06:55:35;100239.75;;;22.43;38.61
63395;BME280;49531;-34.520;150.798;2023-05-03T06:58:03;100258.72;;;22.53;38.83
63395;BME280;49531;-34.520;150.798;2023-05-03T07:00:35;100250.06;;;22.46;38.55
63395;BME280;49531;-34.520;150.798;2023-05-03T07:03:05;100268.84;;;22.48;38.60
63395;BME280;49531;-34.520;150.798;2023-05-03T07:05:33;100262.91;;;22.41;38.55
63395;BME280;49531;-34.520;150.798;2023-05-03T07:08:00;100266.44;;;22.41;38.63
63395;BME280;49531;-34.520;150.798;2023-05-03T07:10:27;100288.66;;;22.53;38.31
63395;BME280;49531;-34.520;150.798;2023-05-03T07:12:56;100276.16;;;22.52;38.85
63395;BME280;49531;-34.520;150.798;2023-05-03T07:15:23;100292.25;;;22.44;38.81
63395;BME280;49531;-34.520;150.798;2023-05-03T07:17:50;100308.88;;;22.42;38.57
63395;BME280;49531;-34.520;150.798;2023-05-03T07:20:17;100302.41;;;22.38;38.93
63395;BME280;49531;-34.520;150.798;2023-05-03T07:22:44;100295.19;;;22.18;38.74
63395;BME280;49531;-34.520;150.798;2023-05-03T07:25:14;100325.00;;;22.34;38.88
63395;BME280;49531;-34.520;150.798;2023-05-03T07:27:43;100342.97;;;22.35;38.71
63395;BME280;49531;-34.520;150.798;2023-05-03T07:30:10;100345.22;;;22.17;38.80
63395;BME280;49531;-34.520;150.798;2023-05-03T07:32:38;100363.72;;;22.20;38.74
63395;BME280;49531;-34.520;150.798;2023-05-03T07:35:06;100366.13;;;22.27;38.83
63395;BME280;49531;-34.520;150.798;2023-05-03T07:37:33;100376.22;;;22.21;38.91
63395;BME280;49531;-34.520;150.798;2023-05-03T07:40:00;100381.16;;;22.14;38.73
63395;BME280;49531;-34.520;150.798;2023-05-03T07:42:29;100377.34;;;22.15;38.49
63395;BME280;49531;-34.520;150.798;2023-05-03T07:44:57;100370.84;;;22.11;38.81
63395;BME280;49531;-34.520;150.798;2023-05-03T07:47:24;100383.63;;;22.11;38.68
63395;BME280;49531;-34.520;150.798;2023-05-03T07:49:53;100384.97;;;22.13;38.75
63395;BME280;49531;-34.520;150.798;2023-05-03T07:52:20;100390.16;;;22.05;38.69
63395;BME280;49531;-34.520;150.798;2023-05-03T07:54:47;100390.97;;;22.00;38.56
63395;BME280;49531;-34.520;150.798;2023-05-03T07:57:15;100425.81;;;22.03;38.70
63395;BME280;49531;-34.520;150.798;2023-05-03T07:59:42;100407.59;;;21.99;38.41
63395;BME280;49531;-34.520;150.798;2023-05-03T08:02:09;100426.91;;;21.92;38.70
63395;BME280;49531;-34.520;150.798;2023-05-03T08:04:37;100442.13;;;21.93;38.60
63395;BME280;49531;-34.520;150.798;2023-05-03T08:07:04;100460.38;;;21.92;38.63
63395;BME280;49531;-34.520;150.798;2023-05-03T08:09:31;100449.50;;;21.87;38.51
63395;BME280;49531;-34.520;150.798;2023-05-03T08:11:59;100452.75;;;21.84;38.57
63395;BME280;49531;-34.520;150.798;2023-05-03T08:14:27;100468.53;;;21.87;38.69
63395;BME280;49531;-34.520;150.798;2023-05-03T08:16:55;100454.69;;;21.79;38.80
63395;BME280;49531;-34.520;150.798;2023-05-03T08:19:22;100460.66;;;21.76;38.80
63395;BME280;49531;-34.520;150.798;2023-05-03T08:21:49;100478.31;;;21.83;38.80
63395;BME280;49531;-34.520;150.798;2023-05-03T08:24:19;100483.50;;;21.85;38.82
63395;BME280;49531;-34.520;150.798;2023-05-03T08:26:47;100458.50;;;21.68;38.74
63395;BME280;49531;-34.520;150.798;2023-05-03T08:29:15;100486.22;;;21.75;38.97
63395;BME280;49531;-34.520;150.798;2023-05-03T08:31:42;100492.75;;;21.79;38.93
63395;BME280;49531;-34.520;150.798;2023-05-03T08:34:09;100502.81;;;21.73;38.89
63395;BME280;49531;-34.520;150.798;2023-05-03T08:36:37;100497.91;;;21.70;38.98
63395;BME280;49531;-34.520;150.798;2023-05-03T08:39:04;100504.72;;;21.68;38.79
63395;BME280;49531;-34.520;150.798;2023-05-03T08:41:32;100501.16;;;21.67;38.75
63395;BME280;49531;-34.520;150.798;2023-05-03T08:44:00;100523.72;;;21.68;38.70
63395;BME280;49531;-34.520;150.798;2023-05-03T08:46:30;100521.28;;;21.66;38.86
63395;BME280;49531;-34.520;150.798;2023-05-03T08:49:02;100532.16;;;21.61;37.86
63395;BME280;49531;-34.520;150.798;2023-05-03T08:51:33;100521.84;;;21.53;38.02
63395;BME280;49531;-34.520;150.798;2023-05-03T08:54:01;100523.75;;;21.47;38.21
63395;BME280;49531;-34.520;150.798;2023-05-03T08:56:32;100539.25;;;21.47;38.35
63395;BME280;49531;-34.520;150.798;2023-05-03T08:59:00;100529.19;;;21.42;38.33
63395;BME280;49531;-34.520;150.798;2023-05-03T09:01:35;100541.97;;;21.47;38.18
63395;BME280;49531;-34.520;150.798;2023-05-03T09:04:02;100543.31;;;21.39;38.22
63395;BME280;49531;-34.520;150.798;2023-05-03T09:06:29;100527.81;;;21.29;38.22
63395;BME280;49531;-34.520;150.798;2023-05-03T09:09:00;100537.31;;;21.27;38.04
63395;BME280;49531;-34.520;150.798;2023-05-03T09:11:31;100573.44;;;21.33;38.30
63395;BME280;49531;-34.520;150.798;2023-05-03T09:14:12;100575.34;;;21.32;38.30
63395;BME280;49531;-34.520;150.798;2023-05-03T09:16:40;100580.50;;;21.28;38.17
63395;BME280;49531;-34.520;150.798;2023-05-03T09:19:10;100601.41;;;21.28;38.22
63395;BME280;49531;-34.520;150.798;2023-05-03T09:21:39;100597.88;;;21.27;38.20
63395;BME280;49531;-34.520;150.798;2023-05-03T09:24:15;100596.78;;;21.18;38.32
63395;BME280;49531;-34.520;150.798;2023-05-03T09:26:43;100616.59;;;21.19;38.43
63395;BME280;49531;-34.520;150.798;2023-05-03T09:29:27;100625.00;;;21.17;38.52
63395;BME280;49531;-34.520;150.798;2023-05-03T09:32:00;100634.25;;;21.16;38.52
63395;BME280;49531;-34.520;150.798;2023-05-03T09:34:28;100645.13;;;21.16;38.52
63395;BME280;49531;-34.520;150.798;2023-05-03T09:36:55;100645.09;;;21.11;38.47
63395;BME280;49531;-34.520;150.798;2023-05-03T09:39:23;100644.00;;;21.07;38.58
63395;BME280;49531;-34.520;150.798;2023-05-03T09:41:50;100646.72;;;21.12;38.54
63395;BME280;49531;-34.520;150.798;2023-05-03T09:44:17;100642.06;;;21.03;38.49
63395;BME280;49531;-34.520;150.798;2023-05-03T09:47:02;100646.13;;;21.00;38.45
63395;BME280;49531;-34.520;150.798;2023-05-03T09:49:31;100646.13;;;21.00;38.42
63395;BME280;49531;-34.520;150.798;2023-05-03T09:52:00;100645.03;;;21.01;38.59
63395;BME280;49531;-34.520;150.798;2023-05-03T09:54:28;100641.75;;;20.94;38.56
63395;BME280;49531;-34.520;150.798;2023-05-03T09:56:57;100642.03;;;20.97;38.51
63395;BME280;49531;-34.520;150.798;2023-05-03T09:59:27;100631.97;;;20.93;38.70
63395;BME280;49531;-34.520;150.798;2023-05-03T10:01:57;100610.50;;;20.86;38.41
63395;BME280;49531;-34.520;150.798;2023-05-03T10:04:27;100615.13;;;20.91;38.33
63395;BME280;49531;-34.520;150.798;2023-05-03T10:06:58;100616.75;;;20.87;38.50
63395;BME280;49531;-34.520;150.798;2023-05-03T10:09:31;100623.50;;;20.84;38.36
63395;BME280;49531;-34.520;150.798;2023-05-03T10:12:08;100624.03;;;20.81;38.56
63395;BME280;49531;-34.520;150.798;2023-05-03T10:14:40;100625.13;;;20.75;38.55
63395;BME280;49531;-34.520;150.798;2023-05-03T10:17:19;100623.72;;;20.68;38.39
63395;BME280;49531;-34.520;150.798;2023-05-03T10:19:55;100633.50;;;20.69;38.63
63395;BME280;49531;-34.520;150.798;2023-05-03T10:22:23;100641.13;;;20.72;38.50
63395;BME280;49531;-34.520;150.798;2023-05-03T10:25:10;100629.44;;;20.71;38.66
63395;BME280;49531;-34.520;150.798;2023-05-03T10:27:48;100620.47;;;20.71;38.49
63395;BME280;49531;-34.520;150.798;2023-05-03T10:30:29;100628.03;;;20.63;38.43
63395;BME280;49531;-34.520;150.798;2023-05-03T10:32:59;100631.84;;;20.62;38.54
63395;BME280;49531;-34.520;150.798;2023-05-03T10:35:52;100622.00;;;20.51;38.26
63395;BME280;49531;-34.520;150.798;2023-05-03T10:38:22;100623.09;;;20.55;38.13
63395;BME280;49531;-34.520;150.798;2023-05-03T10:40:51;100663.50;;;20.52;38.16
63395;BME280;49531;-34.520;150.798;2023-05-03T10:43:40;100630.09;;;20.46;37.80
63395;BME280;49531;-34.520;150.798;2023-05-03T10:49:13;100630.88;;;20.42;38.15
63395;BME280;49531;-34.520;150.798;2023-05-03T10:51:42;100602.06;;;20.30;38.15
63395;BME280;49531;-34.520;150.798;2023-05-03T10:54:10;100610.22;;;20.36;37.87
63395;BME280;49531;-34.520;150.798;2023-05-03T10:56:50;100615.97;;;20.39;37.82
63395;BME280;49531;-34.520;150.798;2023-05-03T10:59:17;100609.72;;;20.39;37.71
63395;BME280;49531;-34.520;150.798;2023-05-03T11:01:47;100630.56;;;20.33;37.46
63395;BME280;49531;-34.520;150.798;2023-05-03T11:04:29;100627.81;;;20.28;37.71
63395;BME280;49531;-34.520;150.798;2023-05-03T11:06:58;100628.63;;;20.28;37.29
63395;BME280;49531;-34.520;150.798;2023-05-03T11:09:31;100608.56;;;20.29;37.34
63395;BME280;49531;-34.520;150.798;2023-05-03T11:12:02;100609.34;;;20.25;37.46
63395;BME280;49531;-34.520;150.798;2023-05-03T11:14:29;100593.75;;;20.10;37.61
63395;BME280;49531;-34.520;150.798;2023-05-03T11:16:57;100610.41;;;20.24;37.56
63395;BME280;49531;-34.520;150.798;2023-05-03T11:19:25;100602.53;;;20.22;37.28
63395;BME280;49531;-34.520;150.798;2023-05-03T11:21:52;100568.25;;;20.06;37.17
63395;BME280;49531;-34.520;150.798;2023-05-03T11:24:19;100550.59;;;20.04;36.94
63395;BME280;49531;-34.520;150.798;2023-05-03T11:26:46;100578.22;;;20.01;36.84
63395;BME280;49531;-34.520;150.798;2023-05-03T11:29:14;100565.50;;;20.01;36.63
63395;BME280;49531;-34.520;150.798;2023-05-03T11:31:43;100578.53;;;20.04;36.81
63395;BME280;49531;-34.520;150.798;2023-05-03T11:34:11;100582.31;;;20.03;36.81
63395;BME280;49531;-34.520;150.798;2023-05-03T11:36:40;100582.03;;;19.99;36.83
63395;BME280;49531;-34.520;150.798;2023-05-03T11:39:10;100589.06;;;20.01;36.51
63395;BME280;49531;-34.520;150.798;2023-05-03T11:41:37;100570.00;;;19.85;36.91
63395;BME280;49531;-34.520;150.798;2023-05-03T11:44:05;100606.09;;;19.91;37.04
63395;BME280;49531;-34.520;150.798;2023-05-03T11:46:34;100588.16;;;19.85;36.93
63395;BME280;49531;-34.520;150.798;2023-05-03T11:49:03;100593.28;;;19.81;36.92
63395;BME280;49531;-34.520;150.798;2023-05-03T11:51:30;100580.28;;;19.83;36.95
63395;BME280;49531;-34.520;150.798;2023-05-03T11:53:59;100584.91;;;19.83;37.03
63395;BME280;49531;-34.520;150.798;2023-05-03T11:56:27;100579.13;;;19.74;36.92
63395;BME280;49531;-34.520;150.798;2023-05-03T11:58:57;100598.66;;;19.76;37.13
63395;BME280;49531;-34.520;150.798;2023-05-03T12:01:26;100588.06;;;19.75;36.99
63395;BME280;49531;-34.520;150.798;2023-05-03T12:03:57;100574.38;;;19.59;37.18
63395;BME280;49531;-34.520;150.798;2023-05-03T12:06:25;100583.13;;;19.67;37.19
63395;BME280;49531;-34.520;150.798;2023-05-03T12:08:54;100595.91;;;19.71;36.85
63395;BME280;49531;-34.520;150.798;2023-05-03T12:11:22;100582.59;;;19.70;37.16
63395;BME280;49531;-34.520;150.798;2023-05-03T12:13:58;100578.53;;;19.67;37.07
63395;BME280;49531;-34.520;150.798;2023-05-03T12:16:25;100598.34;;;19.73;36.67
63395;BME280;49531;-34.520;150.798;2023-05-03T12:18:55;100574.38;;;19.54;36.92
63395;BME280;49531;-34.520;150.798;2023-05-03T12:21:47;100606.38;;;19.57;36.92
63395;BME280;49531;-34.520;150.798;2023-05-03T12:24:14;100602.59;;;19.58;36.75
63395;BME280;49531;-34.520;150.798;2023-05-03T12:26:44;100574.69;;;19.58;36.72
63395;BME280;49531;-34.520;150.798;2023-05-03T12:29:11;100590.88;;;19.53;36.92
63395;BME280;49531;-34.520;150.798;2023-05-03T12:31:39;100584.91;;;19.51;36.96
63395;BME280;49531;-34.520;150.798;2023-05-03T12:34:07;100578.31;;;19.47;37.02
63395;BME280;49531;-34.520;150.798;2023-05-03T12:36:35;100579.41;;;19.46;36.65
63395;BME280;49531;-34.520;150.798;2023-05-03T12:39:03;100610.84;;;19.47;36.75
63395;BME280;49531;-34.520;150.798;2023-05-03T12:41:31;100589.63;;;19.39;37.05
63395;BME280;49531;-34.520;150.798;2023-05-03T12:43:58;100609.69;;;19.43;36.77
63395;BME280;49531;-34.520;150.798;2023-05-03T12:46:26;100600.25;;;19.45;36.77
63395;BME280;49531;-34.520;150.798;2023-05-03T12:48:53;100594.97;;;19.33;36.99
63395;BME280;49531;-34.520;150.798;2023-05-03T12:51:20;100586.41;;;19.42;36.92
63395;BME280;49531;-34.520;150.798;2023-05-03T12:53:48;100612.91;;;19.40;37.13